createdAt,value
2022-11-20T00:02:01.687Z,99935.09
2022-11-20T00:04:04.694Z,99935.09
2022-11-20T00:06:10.066Z,99920.50
2022-11-20T00:08:13.458Z,99915.03
2022-11-20T00:10:16.153Z,99923.00
2022-11-20T00:12:18.760Z,99903.25
2022-11-20T00:14:21.479Z,99901.28
2022-11-20T00:16:26.413Z,99910.06
2022-11-20T00:18:29.617Z,99914.38
2022-11-20T00:20:32.229Z,99906.41
2022-11-20T00:22:34.836Z,99900.91
2022-11-20T00:24:42.741Z,99897.94
2022-11-20T00:26:45.744Z,99905.72
2022-11-20T00:28:54.127Z,99902.53
2022-11-20T00:31:04.024Z,99898.41
2022-11-20T00:33:06.718Z,99892.91
2022-11-20T00:35:09.452Z,99902.00
2022-11-20T00:37:12.167Z,99907.63
2022-11-20T00:39:15.278Z,99902.13
2022-11-20T00:41:17.801Z,99908.94
2022-11-20T00:43:20.388Z,99893.03
2022-11-20T00:45:22.940Z,99896.78
2022-11-20T00:47:25.508Z,99896.63
2022-11-20T00:49:28.166Z,99892.81
2022-11-20T00:51:30.715Z,99901.22
2022-11-20T00:53:33.801Z,99900.25
2022-11-20T00:55:36.379Z,99898.53
2022-11-20T00:57:38.904Z,99910.44
2022-11-20T00:59:41.545Z,99907.47
2022-11-20T01:01:44.134Z,99906.66
2022-11-20T01:03:49.317Z,99905.47
2022-11-20T01:05:51.897Z,99907.47
2022-11-20T01:07:54.470Z,99902.81
2022-11-20T01:09:57.093Z,99901.78
2022-11-20T01:12:00.297Z,99892.47
2022-11-20T01:14:05.556Z,99893.31
2022-11-20T01:16:12.091Z,99879.22
2022-11-20T01:18:14.711Z,99885.16
2022-11-20T01:20:17.307Z,99878.84
2022-11-20T01:22:19.843Z,99867.25
2022-11-20T01:24:23.819Z,99872.56
2022-11-20T01:26:33.321Z,99860.09
2022-11-20T01:28:36.292Z,99864.88
2022-11-20T01:30:38.892Z,99862.88
2022-11-20T01:32:41.514Z,99863.84
2022-11-20T01:34:44.131Z,99866.16
2022-11-20T01:36:48.449Z,99854.53
2022-11-20T01:38:58.759Z,99854.47
2022-11-20T01:41:01.487Z,99849.16
2022-11-20T01:43:22.520Z,99862.09
2022-11-20T01:46:15.625Z,99860.34
2022-11-20T01:48:21.186Z,99850.06
2022-11-20T01:50:34.860Z,99857.25
2022-11-20T01:52:56.428Z,99846.81
2022-11-20T01:55:07.726Z,99839.19
2022-11-20T01:57:13.349Z,99849.28
2022-11-20T01:59:20.225Z,99843.94
2022-11-20T02:01:23.330Z,99836.25
2022-11-20T02:03:26.550Z,99843.22
2022-11-20T02:05:47.522Z,99852.81
2022-11-20T02:07:51.660Z,99840.38
2022-11-20T02:09:58.596Z,99837.53
2022-11-20T02:12:02.037Z,99840.69
2022-11-20T02:14:05.077Z,99841.31
2022-11-20T02:16:13.080Z,99842.16
2022-11-20T02:18:18.954Z,99834.63
2022-11-20T02:20:21.671Z,99822.34
2022-11-20T02:22:32.163Z,99826.66
2022-11-20T02:24:35.558Z,99809.06
2022-11-20T02:27:06.415Z,99822.63
2022-11-20T02:29:09.035Z,99812.16
2022-11-20T02:31:11.858Z,99807.06
2022-11-20T02:33:14.591Z,99799.16
2022-11-20T02:35:19.899Z,99803.47
2022-11-20T02:37:22.972Z,99798.31
2022-11-20T02:39:28.131Z,99804.66
2022-11-20T02:41:38.716Z,99800.16
2022-11-20T02:43:41.309Z,99805.13
2022-11-20T02:45:43.922Z,99788.34
2022-11-20T02:47:46.517Z,99805.22
2022-11-20T02:49:49.236Z,99790.75
2022-11-20T02:51:51.925Z,99799.38
2022-11-20T02:53:54.511Z,99801.38
2022-11-20T02:55:57.096Z,99806.50
2022-11-20T02:57:59.628Z,99800.56
2022-11-20T03:00:02.445Z,99799.72
2022-11-20T03:02:08.205Z,99796.06
2022-11-20T03:04:10.864Z,99798.72
2022-11-20T03:06:13.573Z,99796.06
2022-11-20T03:08:16.163Z,99792.22
2022-11-20T03:10:18.764Z,99795.34
2022-11-20T03:12:21.360Z,99790.38
2022-11-20T03:14:23.987Z,99786.72
2022-11-20T03:16:26.693Z,99772.41
2022-11-20T03:18:30.148Z,99774.41
2022-11-20T03:20:34.086Z,99771.13
2022-11-20T03:22:36.715Z,99769.31
2022-11-20T03:24:39.341Z,99760.84
2022-11-20T03:26:42.175Z,99781.75
2022-11-20T03:28:50.220Z,99775.06
2022-11-20T03:30:52.770Z,99778.53
2022-11-20T03:32:55.629Z,99784.97
2022-11-20T03:34:58.285Z,99784.16
2022-11-20T03:37:00.829Z,99788.28
2022-11-20T03:39:03.572Z,99799.19
2022-11-20T03:41:10.824Z,99802.31
2022-11-20T03:43:13.547Z,99799.31
2022-11-20T03:45:17.861Z,99798.66
2022-11-20T03:47:20.537Z,99793.13
2022-11-20T03:49:23.438Z,99792.31
2022-11-20T03:51:31.603Z,99790.47
2022-11-20T03:53:34.386Z,99784.16
2022-11-20T03:55:37.069Z,99789.47
2022-11-20T03:57:39.738Z,99776.19
2022-11-20T03:59:42.372Z,99772.97
2022-11-20T04:01:49.295Z,99775.63
2022-11-20T04:03:54.357Z,99785.09
2022-11-20T04:05:56.899Z,99778.13
2022-11-20T04:07:59.505Z,99781.69
2022-11-20T04:10:02.080Z,99799.94
2022-11-20T04:12:06.017Z,99818.44
2022-11-20T04:14:15.020Z,99830.84
2022-11-20T04:16:18.731Z,99822.88
2022-11-20T04:18:21.247Z,99817.72
2022-11-20T04:20:23.912Z,99823.88
2022-11-20T04:22:26.477Z,99831.47
2022-11-20T04:24:29.036Z,99837.44
2022-11-20T04:26:32.178Z,99829.94
2022-11-20T04:28:35.476Z,99828.09
2022-11-20T04:30:38.014Z,99831.81
2022-11-20T04:32:40.913Z,99825.50
2022-11-20T04:34:43.538Z,99830.19
2022-11-20T04:36:46.192Z,99843.13
2022-11-20T04:38:57.297Z,99839.09
2022-11-20T04:41:01.547Z,99845.31
2022-11-20T04:43:04.254Z,99853.31
2022-11-20T04:45:07.479Z,99851.28
2022-11-20T04:47:10.076Z,99841.28
2022-11-20T04:49:13.059Z,99824.28
2022-11-20T04:51:16.311Z,99835.41
2022-11-20T04:53:19.876Z,99829.69
2022-11-20T04:55:22.486Z,99841.53
2022-11-20T04:57:25.077Z,99831.53
2022-11-20T04:59:27.629Z,99832.75
2022-11-20T05:01:30.800Z,99817.75
2022-11-20T05:03:34.299Z,99818.97
2022-11-20T05:05:38.989Z,99806.03
2022-11-20T05:07:41.650Z,99802.94
2022-11-20T05:09:44.239Z,99796.75
2022-11-20T05:11:51.228Z,99807.31
2022-11-20T05:13:54.461Z,99809.97
2022-11-20T05:16:01.741Z,99802.16
2022-11-20T05:18:04.451Z,99800.16
2022-11-20T05:20:07.740Z,99812.25
2022-11-20T05:22:10.702Z,99814.53
2022-11-20T05:24:13.436Z,99823.63
2022-11-20T05:26:19.516Z,99821.78
2022-11-20T05:28:23.258Z,99824.06
2022-11-20T05:30:25.773Z,99808.09
2022-11-20T05:32:28.313Z,99815.16
2022-11-20T05:34:31.005Z,99819.28
2022-11-20T05:36:33.797Z,99814.13
2022-11-20T05:38:36.399Z,99802.28
2022-11-20T05:40:38.994Z,99801.91
2022-11-20T05:42:41.558Z,99804.38
2022-11-20T05:44:44.172Z,99810.72
2022-11-20T05:46:46.729Z,99797.66
2022-11-20T05:48:49.360Z,99798.94
2022-11-20T05:50:52.048Z,99796.16
2022-11-20T05:52:54.777Z,99800.28
2022-11-20T05:54:58.060Z,99798.06
2022-11-20T05:57:01.426Z,99785.19
2022-11-20T05:59:04.308Z,99786.06
2022-11-20T06:01:20.604Z,99788.53
2022-11-20T06:03:23.661Z,99780.94
2022-11-20T06:05:26.368Z,99782.38
2022-11-20T06:07:28.971Z,99778.69
2022-11-20T06:09:32.621Z,99773.44
2022-11-20T06:11:35.430Z,99776.28
2022-11-20T06:13:42.044Z,99787.41
2022-11-20T06:15:54.935Z,99784.75
2022-11-20T06:17:57.727Z,99779.22
2022-11-20T06:20:00.334Z,99772.44
2022-11-20T06:22:02.900Z,99768.94
2022-11-20T06:24:05.738Z,99780.03
2022-11-20T06:26:11.035Z,99778.84
2022-11-20T06:28:13.608Z,99772.72
2022-11-20T06:30:16.527Z,99766.81
2022-11-20T06:32:19.087Z,99768.66
2022-11-20T06:34:21.695Z,99777.47
2022-11-20T06:36:24.488Z,99773.25
2022-11-20T06:38:28.714Z,99781.47
2022-11-20T06:40:31.322Z,99782.53
2022-11-20T06:42:33.913Z,99793.66
2022-11-20T06:44:36.562Z,99788.00
2022-11-20T06:46:39.274Z,99787.03
2022-11-20T06:48:42.235Z,99785.84
2022-11-20T06:50:44.864Z,99785.44
2022-11-20T06:52:47.394Z,99794.94
2022-11-20T06:54:50.140Z,99795.56
2022-11-20T06:56:52.774Z,99789.19
2022-11-20T06:58:55.370Z,99796.19
2022-11-20T07:01:06.949Z,99793.75
2022-11-20T07:03:11.315Z,99790.09
2022-11-20T07:05:13.948Z,99797.31
2022-11-20T07:07:16.586Z,99791.38
2022-11-20T07:09:19.189Z,99791.75
2022-11-20T07:11:21.937Z,99787.25
2022-11-20T07:13:24.556Z,99782.34
2022-11-20T07:15:27.353Z,99788.94
2022-11-20T07:17:30.029Z,99780.72
2022-11-20T07:19:32.704Z,99782.38
2022-11-20T07:21:35.590Z,99771.88
2022-11-20T07:23:39.245Z,99786.47
2022-11-20T07:25:41.958Z,99786.88
2022-11-20T07:27:44.918Z,99781.31
2022-11-20T07:29:47.497Z,99774.75
2022-11-20T07:31:50.138Z,99784.84
2022-11-20T07:33:52.845Z,99778.88
2022-11-20T07:35:55.656Z,99764.09
2022-11-20T07:37:58.426Z,99760.41
2022-11-20T07:40:01.493Z,99772.13
2022-11-20T07:42:08.302Z,99770.88
2022-11-20T07:44:11.380Z,99766.78
2022-11-20T07:46:14.255Z,99765.97
2022-11-20T07:48:16.917Z,99768.00
2022-11-20T07:50:21.482Z,99770.88
2022-11-20T07:52:25.040Z,99771.13
2022-11-20T07:54:27.795Z,99746.59
2022-11-20T07:56:30.824Z,99762.72
2022-11-20T07:58:35.605Z,99771.34
2022-11-20T08:00:38.372Z,99763.34
2022-11-20T08:02:42.362Z,99769.72
2022-11-20T08:04:45.038Z,99767.69
2022-11-20T08:06:47.986Z,99773.03
2022-11-20T08:08:50.571Z,99766.47
2022-11-20T08:10:53.220Z,99769.34
2022-11-20T08:13:14.118Z,99769.75
2022-11-20T08:15:16.753Z,99766.47
2022-11-20T08:17:19.361Z,99762.53
2022-11-20T08:19:22.353Z,99767.88
2022-11-20T08:21:25.469Z,99765.03
2022-11-20T08:23:28.085Z,99764.78
2022-11-20T08:25:32.075Z,99762.97
2022-11-20T08:27:34.882Z,99758.63
2022-11-20T08:29:37.921Z,99763.16
2022-11-20T08:31:40.566Z,99757.00
2022-11-20T08:33:43.373Z,99752.88
2022-11-20T08:35:46.325Z,99746.31
2022-11-20T08:37:49.735Z,99741.34
2022-11-20T08:39:53.842Z,99743.84
2022-11-20T08:41:56.520Z,99740.34
2022-11-20T08:44:01.453Z,99747.13
2022-11-20T08:46:04.184Z,99746.94
2022-11-20T08:48:06.901Z,99744.44
2022-11-20T08:50:11.029Z,99744.44
2022-11-20T08:52:13.645Z,99753.28
2022-11-20T08:54:16.359Z,99746.09
2022-11-20T08:56:19.127Z,99744.25
2022-11-20T08:58:21.958Z,99745.25
2022-11-20T09:00:24.965Z,99739.91
2022-11-20T09:02:27.793Z,99738.06
2022-11-20T09:04:30.417Z,99743.63
2022-11-20T09:06:33.168Z,99738.91
2022-11-20T09:08:37.169Z,99747.09
2022-11-20T09:10:42.782Z,99745.88
2022-11-20T09:12:45.404Z,99748.16
2022-11-20T09:14:52.174Z,99752.28
2022-11-20T09:16:57.918Z,99751.06
2022-11-20T09:19:34.069Z,99752.69
2022-11-20T09:21:24.954Z,99747.97
2022-11-20T09:23:28.765Z,99751.06
2022-11-20T09:25:31.430Z,99754.13
2022-11-20T09:27:33.987Z,99751.25
2022-11-20T09:29:36.702Z,99754.94
2022-11-20T09:31:39.331Z,99762.56
2022-11-20T09:33:41.978Z,99755.38
2022-11-20T09:35:45.213Z,99752.50
2022-11-20T09:37:47.845Z,99757.63
2022-11-20T09:39:50.599Z,99755.19
2022-11-20T09:42:24.305Z,99742.81
2022-11-20T09:45:07.104Z,99744.88
2022-11-20T09:47:18.142Z,99760.53
2022-11-20T09:49:36.837Z,99759.06
2022-11-20T09:51:45.048Z,99761.16
2022-11-20T09:53:53.906Z,99769.78
2022-11-20T09:55:57.552Z,99763.41
2022-11-20T09:58:01.063Z,99765.03
2022-11-20T10:00:07.272Z,99763.00
2022-11-20T10:02:25.348Z,99760.31
2022-11-20T10:04:36.672Z,99757.84
2022-11-20T10:07:10.466Z,99767.31
2022-11-20T10:09:28.231Z,99770.00
2022-11-20T10:11:49.606Z,99776.78
2022-11-20T10:14:00.897Z,99780.25
2022-11-20T10:16:27.222Z,99768.56
2022-11-20T10:18:55.263Z,99780.88
2022-11-20T10:21:39.721Z,99770.19
2022-11-20T10:23:54.308Z,99770.19
2022-11-20T10:26:24.277Z,99770.81
2022-11-20T10:28:42.888Z,99773.91
2022-11-20T10:30:56.546Z,99765.25
2022-11-20T10:33:29.064Z,99770.81
2022-11-20T10:35:44.362Z,99771.81
2022-11-20T10:37:52.691Z,99777.59
2022-11-20T10:40:26.319Z,99768.53
2022-11-20T10:42:46.532Z,99768.13
2022-11-20T10:45:06.607Z,99769.38
2022-11-20T10:47:19.661Z,99767.72
2022-11-20T10:49:22.613Z,99768.94
2022-11-20T10:51:40.045Z,99760.94
2022-11-20T10:53:54.409Z,99763.41
2022-11-20T10:56:08.741Z,99758.25
2022-11-20T10:58:24.558Z,99759.69
2022-11-20T11:00:27.268Z,99760.31
2022-11-20T11:02:40.237Z,99754.75
2022-11-20T11:04:48.867Z,99759.50
2022-11-20T11:06:56.135Z,99766.47
2022-11-20T11:09:04.423Z,99770.19
2022-11-20T11:11:21.902Z,99767.09
2022-11-20T11:13:28.286Z,99764.84
2022-11-20T11:15:43.040Z,99769.38
2022-11-20T11:17:48.926Z,99776.16
2022-11-20T11:20:08.184Z,99770.34
2022-11-20T11:22:19.362Z,99774.47
2022-11-20T11:24:46.972Z,99773.03
2022-11-20T11:27:05.550Z,99774.88
2022-11-20T11:29:19.139Z,99771.81
2022-11-20T11:31:26.538Z,99773.50
2022-11-20T11:33:31.858Z,99763.78
2022-11-20T11:35:34.895Z,99766.91
2022-11-20T11:37:40.003Z,99763.59
2022-11-20T11:39:44.473Z,99764.22
2022-11-20T11:41:47.935Z,99763.81
2022-11-20T11:44:20.302Z,99759.72
2022-11-20T11:46:25.685Z,99765.25
2022-11-20T11:48:28.385Z,99756.81
2022-11-20T11:50:32.169Z,99757.66
2022-11-20T11:52:44.157Z,99766.69
2022-11-20T11:54:56.668Z,99767.31
2022-11-20T11:57:06.741Z,99752.91
2022-11-20T11:59:18.312Z,99760.31
2022-11-20T12:01:53.016Z,99761.56
2022-11-20T12:04:20.598Z,99769.59
2022-11-20T12:06:24.620Z,99779.03
2022-11-20T12:08:42.914Z,99778.84
2022-11-20T12:11:13.381Z,99772.06
2022-11-20T12:13:25.044Z,99788.50
2022-11-20T12:15:34.308Z,99781.72
2022-11-20T12:17:36.987Z,99790.34
2022-11-20T12:19:39.639Z,99794.88
2022-11-20T12:21:51.243Z,99805.56
2022-11-20T12:24:25.814Z,99797.75
2022-11-20T12:26:40.686Z,99791.78
2022-11-20T12:28:54.259Z,99795.28
2022-11-20T12:31:46.314Z,99794.47
2022-11-20T12:34:07.194Z,99794.47
2022-11-20T12:36:36.727Z,99787.88
2022-11-20T12:39:03.669Z,99793.44
2022-11-20T12:41:41.912Z,99791.16
2022-11-20T12:44:20.205Z,99800.41
2022-11-20T12:46:35.525Z,99801.44
2022-11-20T12:48:41.056Z,99794.84
2022-11-20T12:51:18.986Z,99792.59
2022-11-20T12:53:58.769Z,99793.41
2022-11-20T12:56:16.247Z,99796.72
2022-11-20T12:58:40.624Z,99793.59
2022-11-20T13:00:54.898Z,99795.28
2022-11-20T13:03:06.280Z,99802.88
2022-11-20T13:05:21.276Z,99796.72
2022-11-20T13:07:27.444Z,99807.59
2022-11-20T13:09:31.211Z,99805.53
2022-11-20T13:11:46.301Z,99808.03
2022-11-20T13:14:16.748Z,99805.56
2022-11-20T13:16:28.541Z,99811.72
2022-11-20T13:18:39.018Z,99811.09
2022-11-20T13:20:46.834Z,99812.13
2022-11-20T13:22:55.859Z,99815.22
2022-11-20T13:24:58.504Z,99811.94
2022-11-20T13:27:10.020Z,99821.63
2022-11-20T13:29:18.859Z,99816.03
2022-11-20T13:31:36.053Z,99823.69
2022-11-20T13:33:39.989Z,99824.50
2022-11-20T13:35:43.987Z,99818.94
2022-11-20T13:37:46.600Z,99811.75
2022-11-20T13:39:49.319Z,99819.78
2022-11-20T13:42:03.452Z,99817.09
2022-11-20T13:44:24.905Z,99819.78
2022-11-20T13:46:43.924Z,99813.59
2022-11-20T13:48:47.844Z,99810.50
2022-11-20T13:51:15.093Z,99812.38
2022-11-20T13:53:53.636Z,99814.59
2022-11-20T13:56:02.969Z,99811.94
2022-11-20T13:58:44.384Z,99824.69
2022-11-20T14:00:58.451Z,99823.03
2022-11-20T14:03:44.144Z,99821.38
2022-11-20T14:06:04.211Z,99827.56
2022-11-20T14:08:14.573Z,99829.19
2022-11-20T14:10:31.393Z,99836.41
2022-11-20T14:12:35.311Z,99837.25
2022-11-20T14:14:50.066Z,99831.91
2022-11-20T14:16:54.882Z,99837.25
2022-11-20T14:18:58.939Z,99844.44
2022-11-20T14:21:03.173Z,99827.78
2022-11-20T14:23:06.463Z,99832.72
2022-11-20T14:25:18.254Z,99833.53
2022-11-20T14:27:22.580Z,99833.53
2022-11-20T14:29:30.545Z,99832.09
2022-11-20T14:31:33.268Z,99836.22
2022-11-20T14:33:36.734Z,99844.84
2022-11-20T14:35:47.093Z,99837.28
2022-11-20T14:37:49.804Z,99839.50
2022-11-20T14:39:56.384Z,99833.53
2022-11-20T14:41:59.102Z,99832.09
2022-11-20T14:44:03.223Z,99840.75
2022-11-20T14:46:12.341Z,99824.69
2022-11-20T14:48:16.971Z,99838.88
2022-11-20T14:50:24.486Z,99838.06
2022-11-20T14:52:28.986Z,99828.59
2022-11-20T14:54:31.959Z,99832.31
2022-11-20T14:56:34.645Z,99832.53
2022-11-20T14:58:37.342Z,99828.00
2022-11-20T15:00:40.224Z,99819.56
2022-11-20T15:02:47.980Z,99816.06
2022-11-20T15:05:00.593Z,99813.59
2022-11-20T15:07:03.303Z,99821.41
2022-11-20T15:09:14.977Z,99828.41
2022-11-20T15:11:27.271Z,99822.22
2022-11-20T15:13:35.887Z,99821.59
2022-11-20T15:15:56.710Z,99831.91
2022-11-20T15:17:59.900Z,99822.03
2022-11-20T15:20:04.599Z,99824.09
2022-11-20T15:22:14.317Z,99825.34
2022-11-20T15:24:17.053Z,99813.41
2022-11-20T15:26:28.851Z,99817.31
2022-11-20T15:28:41.568Z,99810.72
2022-11-20T15:30:44.496Z,99805.16
2022-11-20T15:32:48.351Z,99816.69
2022-11-20T15:34:50.933Z,99817.53
2022-11-20T15:36:54.278Z,99817.53
2022-11-20T15:38:57.432Z,99805.34
2022-11-20T15:41:00.089Z,99797.56
2022-11-20T15:43:12.632Z,99804.16
2022-11-20T15:45:16.138Z,99800.22
2022-11-20T15:47:20.061Z,99809.28
2022-11-20T15:49:24.872Z,99824.06
2022-11-20T15:51:39.372Z,99824.25
2022-11-20T15:53:43.064Z,99820.97
2022-11-20T15:55:45.722Z,99819.34
2022-11-20T15:57:48.277Z,99820.16
2022-11-20T15:59:50.829Z,99820.78
2022-11-20T16:01:53.443Z,99811.50
2022-11-20T16:03:56.163Z,99802.03
2022-11-20T16:05:58.869Z,99806.56
2022-11-20T16:08:04.954Z,99810.25
2022-11-20T16:10:11.212Z,99816.03
2022-11-20T16:12:33.995Z,99826.75
2022-11-20T16:14:55.059Z,99819.91
2022-11-20T16:16:57.737Z,99821.78
2022-11-20T16:19:01.522Z,99832.06
2022-11-20T16:21:04.975Z,99821.78
2022-11-20T16:23:08.205Z,99824.03
2022-11-20T16:25:10.964Z,99817.84
2022-11-20T16:27:13.634Z,99808.56
2022-11-20T16:29:16.310Z,99801.78
2022-11-20T16:31:20.757Z,99800.13
2022-11-20T16:33:23.505Z,99796.44
2022-11-20T16:35:28.627Z,99800.16
2022-11-20T16:37:31.324Z,99794.56
2022-11-20T16:39:33.997Z,99791.91
2022-11-20T16:41:37.339Z,99791.09
2022-11-20T16:44:01.577Z,99786.78
2022-11-20T16:46:05.106Z,99786.78
2022-11-20T16:48:07.712Z,99788.22
2022-11-20T16:50:11.242Z,99777.72
2022-11-20T16:52:14.403Z,99779.13
2022-11-20T16:54:20.763Z,99781.63
2022-11-20T16:56:26.353Z,99781.19
2022-11-20T16:58:28.865Z,99776.47
2022-11-20T17:00:31.399Z,99778.53
2022-11-20T17:02:34.145Z,99783.25
2022-11-20T17:04:37.342Z,99783.50
2022-11-20T17:06:44.420Z,99788.84
2022-11-20T17:08:47.813Z,99801.78
2022-11-20T17:10:50.376Z,99806.72
2022-11-20T17:12:53.292Z,99812.88
2022-11-20T17:14:55.967Z,99828.53
2022-11-20T17:16:58.824Z,99829.56
2022-11-20T17:19:03.565Z,99836.34
2022-11-20T17:21:07.272Z,99840.47
2022-11-20T17:23:10.279Z,99835.72
2022-11-20T17:25:12.921Z,99832.84
2022-11-20T17:27:15.711Z,99833.47
2022-11-20T17:29:21.808Z,99830.16
2022-11-20T17:31:24.444Z,99831.59
2022-11-20T17:33:27.157Z,99847.47
2022-11-20T17:35:29.826Z,99842.13
2022-11-20T17:37:32.468Z,99841.06
2022-11-20T17:39:35.139Z,99840.25
2022-11-20T17:41:38.088Z,99850.97
2022-11-20T17:43:42.958Z,99847.47
2022-11-20T17:45:45.723Z,99848.28
2022-11-20T17:47:48.427Z,99840.88
2022-11-20T17:49:51.544Z,99844.78
2022-11-20T17:51:55.036Z,99845.00
2022-11-20T17:54:01.036Z,99857.56
2022-11-20T17:56:23.588Z,99861.69
2022-11-20T17:58:29.290Z,99859.00
2022-11-20T18:00:31.907Z,99860.88
2022-11-20T18:02:34.685Z,99859.38
2022-11-20T18:04:37.603Z,99864.34
2022-11-20T18:06:40.551Z,99859.38
2022-11-20T18:08:44.596Z,99863.09
2022-11-20T18:10:47.268Z,99863.50
2022-11-20T18:12:49.898Z,99862.66
2022-11-20T18:14:52.568Z,99858.34
2022-11-20T18:17:10.251Z,99860.00
2022-11-20T18:19:18.742Z,99860.00
2022-11-20T18:21:21.770Z,99863.72
2022-11-20T18:23:24.392Z,99863.72
2022-11-20T18:25:27.116Z,99864.97
2022-11-20T18:27:30.037Z,99870.09
2022-11-20T18:29:32.724Z,99873.00
2022-11-20T18:31:35.356Z,99877.31
2022-11-20T18:33:38.312Z,99866.41
2022-11-20T18:35:43.038Z,99869.28
2022-11-20T18:37:45.700Z,99868.25
2022-11-20T18:39:50.574Z,99864.97
2022-11-20T18:42:12.016Z,99857.75
2022-11-20T18:44:34.228Z,99860.22
2022-11-20T18:46:36.817Z,99867.66
2022-11-20T18:48:39.506Z,99853.63
2022-11-20T18:50:42.084Z,99861.25
2022-11-20T18:52:45.001Z,99855.50
2022-11-20T18:54:47.749Z,99858.16
2022-11-20T18:56:50.799Z,99862.47
2022-11-20T18:58:54.686Z,99861.06
2022-11-20T19:01:06.393Z,99868.47
2022-11-20T19:03:09.071Z,99863.09
2022-11-20T19:05:13.660Z,99861.25
2022-11-20T19:07:16.834Z,99850.72
2022-11-20T19:09:19.627Z,99855.88
2022-11-20T19:11:22.340Z,99857.53
2022-11-20T19:13:25.035Z,99851.34
2022-11-20T19:15:29.028Z,99851.97
2022-11-20T19:17:33.598Z,99861.03
2022-11-20T19:19:36.279Z,99846.59
2022-11-20T19:21:39.016Z,99854.88
2022-11-20T19:23:42.061Z,99853.63
2022-11-20T19:25:44.654Z,99853.63
2022-11-20T19:27:47.260Z,99854.22
2022-11-20T19:29:50.052Z,99845.34
2022-11-20T19:31:53.501Z,99840.22
2022-11-20T19:34:01.329Z,99840.22
2022-11-20T19:36:16.499Z,99846.22
2022-11-20T19:38:19.184Z,99836.94
2022-11-20T19:40:22.270Z,99847.03
2022-11-20T19:42:25.364Z,99847.03
2022-11-20T19:44:28.011Z,99834.69
2022-11-20T19:46:32.728Z,99825.41
2022-11-20T19:48:37.837Z,99839.19
2022-11-20T19:50:40.410Z,99831.41
2022-11-20T19:52:42.981Z,99830.16
2022-11-20T19:54:45.827Z,99830.97
2022-11-20T19:56:49.669Z,99829.09
2022-11-20T19:58:56.289Z,99830.56
2022-11-20T20:01:09.726Z,99830.56
2022-11-20T20:03:12.436Z,99821.50
2022-11-20T20:05:15.072Z,99812.41
2022-11-20T20:07:17.930Z,99811.22
2022-11-20T20:09:22.683Z,99804.63
2022-11-20T20:11:27.842Z,99804.22
2022-11-20T20:13:30.350Z,99809.81
2022-11-20T20:15:33.207Z,99812.69
2022-11-20T20:17:35.759Z,99811.03
2022-11-20T20:19:38.393Z,99817.59
2022-11-20T20:21:41.692Z,99817.41
2022-11-20T20:23:45.058Z,99822.16
2022-11-20T20:25:48.838Z,99824.00
2022-11-20T20:27:51.459Z,99814.91
2022-11-20T20:29:54.035Z,99825.63
2022-11-20T20:31:56.796Z,99812.41
2022-11-20T20:33:59.981Z,99819.19
2022-11-20T20:36:02.523Z,99813.44
2022-11-20T20:38:05.212Z,99795.31
2022-11-20T20:40:12.237Z,99812.38
2022-11-20T20:42:17.720Z,99815.69
2022-11-20T20:44:38.994Z,99813.00
2022-11-20T20:46:41.912Z,99810.94
2022-11-20T20:48:44.620Z,99809.06
2022-11-20T20:50:55.165Z,99808.03
2022-11-20T20:52:57.777Z,99795.50
2022-11-20T20:55:00.551Z,99796.75
2022-11-20T20:57:03.279Z,99796.75
2022-11-20T20:59:06.588Z,99801.88
2022-11-20T21:01:12.997Z,99802.50
2022-11-20T21:03:15.791Z,99796.75
2022-11-20T21:05:18.338Z,99807.03
2022-11-20T21:07:21.513Z,99803.13
2022-11-20T21:09:24.364Z,99791.78
2022-11-20T21:11:27.549Z,99807.84
2022-11-20T21:13:30.856Z,99800.88
2022-11-20T21:15:33.508Z,99805.81
2022-11-20T21:17:36.522Z,99804.38
2022-11-20T21:19:39.133Z,99805.00
2022-11-20T21:21:59.853Z,99806.84
2022-11-20T21:24:02.924Z,99816.53
2022-11-20T21:26:08.761Z,99813.47
2022-11-20T21:28:15.611Z,99823.75
2022-11-20T21:30:20.825Z,99826.03
2022-11-20T21:32:23.473Z,99824.38
2022-11-20T21:34:26.526Z,99830.13
2022-11-20T21:36:31.198Z,99822.50
2022-11-20T21:38:34.597Z,99836.69
2022-11-20T21:40:37.238Z,99826.22
2022-11-20T21:42:39.818Z,99821.44
2022-11-20T21:44:42.705Z,99824.09
2022-11-20T21:46:46.591Z,99827.63
2022-11-20T21:48:49.442Z,99820.63
2022-11-20T21:50:52.012Z,99819.38
2022-11-20T21:52:54.656Z,99818.16
2022-11-20T21:54:57.260Z,99813.44
2022-11-20T21:57:00.424Z,99824.16
2022-11-20T21:59:03.133Z,99823.28
2022-11-20T22:01:25.596Z,99828.03
2022-11-20T22:03:28.317Z,99820.63
2022-11-20T22:05:30.984Z,99820.00
2022-11-20T22:07:33.653Z,99833.00
2022-11-20T22:09:36.335Z,99837.13
2022-11-20T22:11:39.050Z,99829.91
2022-11-20T22:14:00.995Z,99832.59
2022-11-20T22:16:03.894Z,99823.13
2022-11-20T22:18:12.828Z,99815.09
2022-11-20T22:20:18.556Z,99817.56
2022-11-20T22:22:21.226Z,99820.69
2022-11-20T22:24:24.280Z,99813.22
2022-11-20T22:26:33.912Z,99814.09
2022-11-20T22:28:40.470Z,99819.22
2022-11-20T22:30:43.072Z,99811.81
2022-11-20T22:32:45.729Z,99815.09
2022-11-20T22:34:48.341Z,99827.66
2022-11-20T22:36:50.927Z,99829.50
2022-11-20T22:38:53.519Z,99832.56
2022-11-20T22:41:10.592Z,99827.63
2022-11-20T22:43:13.247Z,99826.78
2022-11-20T22:45:16.250Z,99823.09
2022-11-20T22:47:18.935Z,99821.84
2022-11-20T22:49:21.629Z,99818.56
2022-11-20T22:51:26.876Z,99825.34
2022-11-20T22:53:29.546Z,99829.06
2022-11-20T22:55:34.085Z,99830.31
2022-11-20T22:57:37.123Z,99831.31
2022-11-20T22:59:40.353Z,99849.22
2022-11-20T23:01:42.974Z,99855.22
2022-11-20T23:03:48.695Z,99849.63
2022-11-20T23:05:51.414Z,99841.56
2022-11-20T23:07:53.970Z,99830.69
2022-11-20T23:09:56.738Z,99840.16
2022-11-20T23:11:59.266Z,99832.72
2022-11-20T23:14:07.756Z,99829.59
2022-11-20T23:16:15.855Z,99840.13
2022-11-20T23:18:18.599Z,99833.72
2022-11-20T23:20:21.412Z,99841.75
2022-11-20T23:22:24.129Z,99842.97
2022-11-20T23:24:26.972Z,99839.50
2022-11-20T23:26:32.430Z,99847.72
2022-11-20T23:28:35.333Z,99846.47
2022-11-20T23:30:37.901Z,99845.66
2022-11-20T23:32:40.542Z,99847.13
2022-11-20T23:34:43.152Z,99850.22
2022-11-20T23:36:45.691Z,99854.69
2022-11-20T23:38:48.531Z,99845.03
2022-11-20T23:40:52.366Z,99853.91
2022-11-20T23:43:13.362Z,99847.72
2022-11-20T23:45:16.091Z,99842.00
2022-11-20T23:47:18.671Z,99835.38
2022-11-20T23:49:21.253Z,99836.63
2022-11-20T23:51:24.052Z,99840.56
2022-11-20T23:53:27.563Z,99837.25
2022-11-20T23:55:30.572Z,99847.53
2022-11-20T23:57:33.125Z,99838.28
2022-11-20T23:59:35.816Z,99838.91
